Time;durP1;ratioP1;P1;durP2;ratioP2;P2;SDS_P1;SDS_P2;PMS_P1;PMS_P2;Temp;Humidity;BMP_temperature;BMP_pressure;BME280_temperature;BME280_humidity;BME280_pressure;Samples;Min_cycle;Max_cycle;Signal;HPM_P1;HPM_P2
2021/09/28 00:01:17;;;;;;;4.70;1.00;;;;;;;;;;5061953;28;21726;-75
2021/09/28 00:03:44;;;;;;;6.00;1.43;;;;;;;;;;5068329;28;20638;-77
2021/09/28 00:06:13;;;;;;;6.63;1.63;;;;;;;;;;5065645;28;20641;-77
2021/09/28 00:08:42;;;;;;;4.23;1.23;;;;;;;;;;5060501;28;20197;-78
2021/09/28 00:11:09;;;;;;;4.83;1.23;;;;;;;;;;5058855;28;20202;-75
2021/09/28 00:13:36;;;;;;;6.13;1.57;;;;;;;;;;5062351;28;20316;-77
2021/09/28 00:16:03;;;;;;;7.97;1.30;;;;;;;;;;5060686;28;20235;-77
2021/09/28 00:18:31;;;;;;;5.90;1.30;;;;;;;;;;5067173;28;20285;-77
2021/09/28 00:20:58;;;;;;;5.13;1.03;;;;;;;;;;5058320;28;20291;-76
2021/09/28 00:23:27;;;;;;;5.20;1.60;;;;;;;;;;5056555;28;20206;-78
2021/09/28 00:25:54;;;;;;;8.50;1.33;;;;;;;;;;5064007;28;20223;-77
2021/09/28 00:28:23;;;;;;;7.40;1.30;;;;;;;;;;5067528;28;20235;-78
2021/09/28 00:30:50;;;;;;;7.00;1.70;;;;;;;;;;5062449;28;20205;-77
2021/09/28 00:33:17;;;;;;;9.87;1.50;;;;;;;;;;5067713;28;20326;-75
2021/09/28 00:35:44;;;;;;;9.03;1.73;;;;;;;;;;5071271;28;20286;-77
2021/09/28 00:38:11;;;;;;;11.10;1.80;;;;;;;;;;5071853;28;20214;-77
2021/09/28 00:40:40;;;;;;;6.13;1.47;;;;;;;;;;5071238;28;20288;-77
2021/09/28 00:43:07;;;;;;;9.70;1.60;;;;;;;;;;5072324;28;20234;-77
2021/09/28 00:45:35;;;;;;;6.20;1.47;;;;;;;;;;5054367;28;20275;-77
2021/09/28 00:48:02;;;;;;;7.20;1.70;;;;;;;;;;5060695;28;20230;-77
2021/09/28 00:50:29;;;;;;;4.40;1.40;;;;;;;;;;5071681;28;20195;-77
2021/09/28 00:52:57;;;;;;;6.03;1.33;;;;;;;;;;5071816;28;20229;-77
2021/09/28 00:55:27;;;;;;;5.60;1.77;;;;;;;;;;5065003;28;20280;-77
2021/09/28 00:57:56;;;;;;;7.00;1.37;;;;;;;;;;5052122;28;20203;-77
2021/09/28 01:00:23;;;;;;;8.73;1.93;;;;;;;;;;5052836;28;20227;-77
2021/09/28 01:02:50;;;;;;;6.17;1.43;;;;;;;;;;5061735;28;20292;-77
2021/09/28 01:05:17;;;;;;;6.40;1.50;;;;;;;;;;5059917;28;20199;-77
2021/09/28 01:07:45;;;;;;;6.77;1.50;;;;;;;;;;5050867;28;20271;-77
2021/09/28 01:10:12;;;;;;;11.37;1.83;;;;;;;;;;5051782;28;20251;-77
2021/09/28 01:12:39;;;;;;;5.30;1.20;;;;;;;;;;5051775;28;20315;-77
2021/09/28 01:15:09;;;;;;;8.97;1.23;;;;;;;;;;5055822;28;20200;-77
2021/09/28 01:17:36;;;;;;;8.07;1.40;;;;;;;;;;5059642;28;20665;-77
2021/09/28 01:20:05;;;;;;;9.43;1.60;;;;;;;;;;5067329;28;20234;-78
2021/09/28 01:22:33;;;;;;;7.63;1.43;;;;;;;;;;5071772;28;20303;-77
2021/09/28 01:25:01;;;;;;;9.20;1.40;;;;;;;;;;5071880;28;20195;-77
2021/09/28 01:27:28;;;;;;;8.27;1.57;;;;;;;;;;5071208;28;20293;-77
2021/09/28 01:29:55;;;;;;;6.57;1.37;;;;;;;;;;5071814;28;20290;-77
2021/09/28 01:32:22;;;;;;;6.13;1.30;;;;;;;;;;5061345;28;20309;-77
2021/09/28 01:34:49;;;;;;;8.27;1.50;;;;;;;;;;5051775;28;20283;-77
2021/09/28 01:37:16;;;;;;;7.57;1.60;;;;;;;;;;5052058;28;20207;-77
2021/09/28 01:39:45;;;;;;;6.17;1.33;;;;;;;;;;5059032;28;20231;-77
2021/09/28 01:42:12;;;;;;;6.27;1.50;;;;;;;;;;5051641;28;20643;-77
2021/09/28 01:44:39;;;;;;;5.13;1.47;;;;;;;;;;5051395;28;20272;-77
2021/09/28 01:47:07;;;;;;;7.13;1.67;;;;;;;;;;5051231;28;20204;-77
2021/09/28 01:49:34;;;;;;;8.23;1.40;;;;;;;;;;5051586;28;20285;-78
2021/09/28 01:52:02;;;;;;;6.00;1.33;;;;;;;;;;5056430;28;20210;-76
2021/09/28 01:54:29;;;;;;;10.57;1.80;;;;;;;;;;5071285;28;20323;-76
2021/09/28 01:56:58;;;;;;;7.30;1.70;;;;;;;;;;5071502;28;20231;-77
2021/09/28 01:59:25;;;;;;;5.33;1.57;;;;;;;;;;5071268;28;20287;-76
2021/09/28 02:01:52;;;;;;;9.47;1.77;;;;;;;;;;5067599;28;20255;-77
2021/09/28 02:04:19;;;;;;;9.43;1.60;;;;;;;;;;5051545;28;20227;-77
2021/09/28 02:06:46;;;;;;;6.83;1.43;;;;;;;;;;5050821;28;20255;-77
2021/09/28 02:09:15;;;;;;;8.23;1.57;;;;;;;;;;5051266;28;20295;-77
2021/09/28 02:11:42;;;;;;;6.07;1.20;;;;;;;;;;5050675;28;20209;-77
2021/09/28 02:14:10;;;;;;;6.40;1.43;;;;;;;;;;5051162;28;20794;-76
2021/09/28 02:16:38;;;;;;;7.73;1.47;;;;;;;;;;5050639;28;20287;-76
2021/09/28 02:19:05;;;;;;;10.30;2.10;;;;;;;;;;5052721;28;20211;-77
2021/09/28 02:21:32;;;;;;;6.90;1.63;;;;;;;;;;5056636;28;20278;-76
2021/09/28 02:24:00;;;;;;;9.53;1.63;;;;;;;;;;5074348;28;20237;-77
2021/09/28 02:26:27;;;;;;;7.43;1.67;;;;;;;;;;5062845;28;20290;-76
2021/09/28 02:28:54;;;;;;;8.50;1.80;;;;;;;;;;5054475;28;20234;-76
2021/09/28 02:31:23;;;;;;;5.90;1.60;;;;;;;;;;5069844;28;20698;-77
2021/09/28 02:33:50;;;;;;;11.30;2.07;;;;;;;;;;5072796;28;20306;-76
2021/09/28 02:36:17;;;;;;;10.07;1.90;;;;;;;;;;5074716;28;20234;-77
2021/09/28 02:38:44;;;;;;;10.97;2.37;;;;;;;;;;5073934;28;20294;-76
2021/09/28 02:41:11;;;;;;;7.73;2.10;;;;;;;;;;5074178;28;20282;-77
2021/09/28 02:43:38;;;;;;;10.50;2.23;;;;;;;;;;5073557;28;20279;-77
2021/09/28 02:46:06;;;;;;;8.97;2.27;;;;;;;;;;5073969;28;20677;-76
2021/09/28 02:48:35;;;;;;;12.93;2.50;;;;;;;;;;5057023;28;20286;-77
2021/09/28 02:51:02;;;;;;;9.77;2.43;;;;;;;;;;5068679;28;20241;-77
2021/09/28 02:53:29;;;;;;;10.90;4.23;;;;;;;;;;5072427;28;20302;-77
2021/09/28 02:55:56;;;;;;;10.97;3.53;;;;;;;;;;5054610;28;20757;-77
2021/09/28 02:58:23;;;;;;;12.87;3.80;;;;;;;;;;5066311;28;20754;-76
2021/09/28 03:00:50;;;;;;;12.27;3.90;;;;;;;;;;5065322;28;20634;-77
2021/09/28 03:03:18;;;;;;;10.83;3.60;;;;;;;;;;5072351;28;20890;-76
2021/09/28 03:05:46;;;;;;;14.03;3.80;;;;;;;;;;5072308;28;20231;-76
2021/09/28 03:08:13;;;;;;;16.33;4.50;;;;;;;;;;5068563;28;20199;-77
2021/09/28 03:10:43;;;;;;;12.00;4.40;;;;;;;;;;5070598;28;20598;-77
2021/09/28 03:13:10;;;;;;;11.87;4.40;;;;;;;;;;5072878;28;20640;-76
2021/09/28 03:15:38;;;;;;;19.73;5.07;;;;;;;;;;5073575;28;20622;-76
2021/09/28 03:18:05;;;;;;;12.70;4.40;;;;;;;;;;5068117;28;20210;-76
2021/09/28 03:20:32;;;;;;;16.90;4.27;;;;;;;;;;5065481;28;20278;-76
2021/09/28 03:23:01;;;;;;;13.50;3.67;;;;;;;;;;5061822;28;20636;-76
2021/09/28 03:25:28;;;;;;;14.90;3.67;;;;;;;;;;5058215;28;20286;-77
2021/09/28 03:27:55;;;;;;;18.10;4.07;;;;;;;;;;5072311;28;20286;-77
2021/09/28 03:30:22;;;;;;;17.23;3.87;;;;;;;;;;5072502;28;20286;-77
2021/09/28 03:32:50;;;;;;;13.93;3.90;;;;;;;;;;5072771;28;20199;-76
2021/09/28 03:35:17;;;;;;;17.10;3.60;;;;;;;;;;5066903;28;20285;-77
2021/09/28 03:37:45;;;;;;;17.27;3.10;;;;;;;;;;5070937;28;20643;-77
2021/09/28 03:40:14;;;;;;;11.33;3.50;;;;;;;;;;5063210;28;20207;-77
2021/09/28 03:42:41;;;;;;;10.07;3.30;;;;;;;;;;5073024;28;20639;-77
2021/09/28 03:45:09;;;;;;;12.57;3.40;;;;;;;;;;5060331;28;20635;-77
2021/09/28 03:47:36;;;;;;;9.93;3.20;;;;;;;;;;5059981;28;20283;-77
2021/09/28 03:50:04;;;;;;;15.20;3.50;;;;;;;;;;5071301;28;20285;-77
2021/09/28 03:52:31;;;;;;;16.17;3.73;;;;;;;;;;5065262;28;20282;-77
2021/09/28 03:54:59;;;;;;;13.43;3.37;;;;;;;;;;5053058;28;20309;-77
2021/09/28 03:57:27;;;;;;;11.93;3.60;;;;;;;;;;5053986;28;20290;-76
2021/09/28 03:59:56;;;;;;;13.23;3.47;;;;;;;;;;5066375;28;20196;-77
2021/09/28 04:02:23;;;;;;;13.23;3.10;;;;;;;;;;5055478;28;20216;-77
2021/09/28 04:04:50;;;;;;;11.50;3.10;;;;;;;;;;5067892;28;20281;-77
2021/09/28 04:07:17;;;;;;;13.20;3.27;;;;;;;;;;5064953;28;20320;-77
2021/09/28 04:09:44;;;;;;;12.57;2.87;;;;;;;;;;5063660;28;20207;-77
2021/09/28 04:12:11;;;;;;;13.03;2.73;;;;;;;;;;5056199;28;20294;-77
2021/09/28 04:14:43;;;;;;;10.03;2.90;;;;;;;;;;5053171;28;20276;-77
2021/09/28 04:17:10;;;;;;;11.63;2.93;;;;;;;;;;5052658;28;20297;-77
2021/09/28 04:19:37;;;;;;;11.90;3.10;;;;;;;;;;5069057;28;20289;-77
2021/09/28 04:22:04;;;;;;;14.87;2.60;;;;;;;;;;5067397;28;20289;-77
2021/09/28 04:24:32;;;;;;;9.63;2.40;;;;;;;;;;5071967;28;20282;-77
2021/09/28 04:26:59;;;;;;;13.13;2.83;;;;;;;;;;5068114;28;20234;-77
2021/09/28 04:29:26;;;;;;;12.17;2.70;;;;;;;;;;5052203;28;20298;-77
2021/09/28 04:31:55;;;;;;;12.13;2.70;;;;;;;;;;5052309;28;20754;-77
2021/09/28 04:34:22;;;;;;;12.83;2.67;;;;;;;;;;5052469;28;20230;-77
2021/09/28 04:36:49;;;;;;;11.30;2.77;;;;;;;;;;5067739;28;20302;-77
2021/09/28 04:39:16;;;;;;;11.23;2.57;;;;;;;;;;5072013;28;20297;-77
2021/09/28 04:41:43;;;;;;;9.60;2.37;;;;;;;;;;5051591;28;20299;-77
2021/09/28 04:44:10;;;;;;;15.70;2.50;;;;;;;;;;5059179;28;20187;-77
2021/09/28 04:46:38;;;;;;;10.70;2.47;;;;;;;;;;5071808;28;20235;-77
2021/09/28 04:49:07;;;;;;;14.50;2.43;;;;;;;;;;5072266;28;20289;-77
2021/09/28 04:51:34;;;;;;;12.00;2.00;;;;;;;;;;5072184;28;20790;-77
2021/09/28 04:54:01;;;;;;;12.23;1.93;;;;;;;;;;5057087;28;20306;-77
2021/09/28 04:56:28;;;;;;;6.70;1.70;;;;;;;;;;5054559;28;20303;-76
2021/09/28 04:58:55;;;;;;;9.63;2.10;;;;;;;;;;5061748;28;20278;-77
2021/09/28 05:01:23;;;;;;;10.83;2.27;;;;;;;;;;5058362;28;20209;-78
2021/09/28 05:03:50;;;;;;;10.07;2.17;;;;;;;;;;5053456;28;20278;-79
2021/09/28 05:06:18;;;;;;;11.97;2.10;;;;;;;;;;5063627;28;20315;-79
2021/09/28 05:08:45;;;;;;;9.63;2.23;;;;;;;;;;5060862;28;20715;-80
2021/09/28 05:11:13;;;;;;;7.97;1.93;;;;;;;;;;5055137;28;20223;-80
2021/09/28 05:13:41;;;;;;;10.43;2.03;;;;;;;;;;5064582;28;20665;-79
2021/09/28 05:16:08;;;;;;;8.00;2.10;;;;;;;;;;5068829;28;20285;-79
2021/09/28 05:18:36;;;;;;;10.03;1.63;;;;;;;;;;5071583;28;20285;-78
2021/09/28 05:21:03;;;;;;;9.77;2.00;;;;;;;;;;5061766;28;20227;-80
2021/09/28 05:23:31;;;;;;;10.70;2.40;;;;;;;;;;5055699;28;20282;-80
2021/09/28 05:25:59;;;;;;;9.40;1.93;;;;;;;;;;5067701;28;20206;-79
2021/09/28 05:28:26;;;;;;;9.27;1.70;;;;;;;;;;5060616;28;20294;-79
2021/09/28 05:30:54;;;;;;;11.80;2.00;;;;;;;;;;5058861;28;20237;-81
2021/09/28 05:33:22;;;;;;;10.90;2.40;;;;;;;;;;5059573;28;20200;-79
2021/09/28 05:35:49;;;;;;;8.63;1.77;;;;;;;;;;5062650;28;20206;-79
2021/09/28 05:38:16;;;;;;;7.23;1.90;;;;;;;;;;5070739;28;20292;-81
2021/09/28 05:40:45;;;;;;;7.53;1.77;;;;;;;;;;5054427;28;20233;-79
2021/09/28 05:43:12;;;;;;;12.03;2.23;;;;;;;;;;5051503;28;20238;-80
2021/09/28 05:45:39;;;;;;;11.70;2.10;;;;;;;;;;5054821;28;20719;-79
2021/09/28 05:48:06;;;;;;;8.57;1.70;;;;;;;;;;5054158;28;20639;-81
2021/09/28 05:50:37;;;;;;;9.57;1.70;;;;;;;;;;5063861;28;20234;-80
2021/09/28 05:53:07;;;;;;;9.87;1.90;;;;;;;;;;5064058;28;20238;-82
2021/09/28 05:55:47;;;;;;;10.40;1.87;;;;;;;;;;5064950;28;20251;-83
2021/09/28 05:58:15;;;;;;;10.03;1.90;;;;;;;;;;5069807;28;20619;-83
2021/09/28 06:00:43;;;;;;;10.93;2.00;;;;;;;;;;5057260;28;20196;-83
2021/09/28 06:03:10;;;;;;;9.53;1.70;;;;;;;;;;5056096;28;20230;-83
2021/09/28 06:05:37;;;;;;;10.47;1.93;;;;;;;;;;5055049;28;20702;-83
2021/09/28 06:08:05;;;;;;;11.90;2.47;;;;;;;;;;5057191;28;20269;-83
2021/09/28 06:10:32;;;;;;;9.57;2.23;;;;;;;;;;5073345;28;20626;-84
2021/09/28 06:13:01;;;;;;;14.37;2.40;;;;;;;;;;5059368;28;20206;-83
2021/09/28 06:15:30;;;;;;;13.47;2.13;;;;;;;;;;5062513;28;20302;-83
2021/09/28 06:17:57;;;;;;;11.63;2.20;;;;;;;;;;5057492;28;20203;-83
2021/09/28 06:20:24;;;;;;;17.10;2.23;;;;;;;;;;5061355;28;20203;-83
2021/09/28 06:22:51;;;;;;;10.83;1.90;;;;;;;;;;5067772;28;20218;-83
2021/09/28 06:25:19;;;;;;;11.37;2.07;;;;;;;;;;5074688;28;20307;-84
2021/09/28 06:27:46;;;;;;;9.03;2.20;;;;;;;;;;5066234;28;20711;-83
2021/09/28 06:30:14;;;;;;;8.13;2.33;;;;;;;;;;5064509;28;20234;-84
2021/09/28 06:32:42;;;;;;;9.80;2.17;;;;;;;;;;5059052;28;20702;-83
2021/09/28 06:35:11;;;;;;;11.23;2.97;;;;;;;;;;5054105;28;20653;-83
2021/09/28 06:37:38;;;;;;;8.57;2.27;;;;;;;;;;5054391;28;20206;-83
2021/09/28 06:40:06;;;;;;;8.83;2.10;;;;;;;;;;5057556;28;20294;-82
2021/09/28 06:42:33;;;;;;;9.77;1.97;;;;;;;;;;5054790;28;20287;-83
2021/09/28 06:45:00;;;;;;;9.93;2.30;;;;;;;;;;5069349;28;20282;-82
2021/09/28 06:47:27;;;;;;;11.60;2.30;;;;;;;;;;5073585;28;20286;-82
2021/09/28 06:49:56;;;;;;;11.37;2.30;;;;;;;;;;5071567;28;20568;-81
2021/09/28 06:52:23;;;;;;;10.60;2.00;;;;;;;;;;5054469;28;20287;-81
2021/09/28 06:54:50;;;;;;;8.40;2.00;;;;;;;;;;5053835;28;20362;-82
2021/09/28 06:57:17;;;;;;;13.10;2.17;;;;;;;;;;5053573;28;20647;-82
2021/09/28 06:59:46;;;;;;;9.30;2.60;;;;;;;;;;5055274;28;20214;-81
2021/09/28 07:02:13;;;;;;;10.70;2.87;;;;;;;;;;5061136;28;20246;-82
2021/09/28 07:04:41;;;;;;;10.87;2.40;;;;;;;;;;5072939;28;20226;-82
2021/09/28 07:07:09;;;;;;;9.20;2.07;;;;;;;;;;5057964;28;20265;-81
2021/09/28 07:09:36;;;;;;;8.30;2.53;;;;;;;;;;5053772;28;20366;-82
2021/09/28 07:12:04;;;;;;;11.90;2.70;;;;;;;;;;5068953;28;20678;-82
2021/09/28 07:14:31;;;;;;;9.50;2.37;;;;;;;;;;5070716;28;20313;-82
2021/09/28 07:16:58;;;;;;;10.93;2.97;;;;;;;;;;5056724;28;20626;-82
2021/09/28 07:19:25;;;;;;;7.33;2.00;;;;;;;;;;5072847;28;20754;-82
2021/09/28 07:21:53;;;;;;;6.90;2.00;;;;;;;;;;5061246;28;20199;-82
2021/09/28 07:24:21;;;;;;;10.97;2.70;;;;;;;;;;5053927;28;20227;-81
2021/09/28 07:26:49;;;;;;;6.07;1.80;;;;;;;;;;5053530;28;20275;-82
2021/09/28 07:29:16;;;;;;;8.80;2.20;;;;;;;;;;5053296;28;20683;-81
2021/09/28 07:31:44;;;;;;;10.43;2.20;;;;;;;;;;5062683;28;20277;-82
2021/09/28 07:34:12;;;;;;;10.60;2.53;;;;;;;;;;5060789;28;20195;-82
2021/09/28 07:36:39;;;;;;;10.03;2.23;;;;;;;;;;5070960;28;20226;-82
2021/09/28 07:39:07;;;;;;;8.57;2.13;;;;;;;;;;5069005;28;20211;-83
2021/09/28 07:41:35;;;;;;;7.23;1.93;;;;;;;;;;5072431;28;20282;-82
2021/09/28 07:44:03;;;;;;;12.33;2.33;;;;;;;;;;5053258;28;20223;-81
2021/09/28 07:46:30;;;;;;;5.80;1.67;;;;;;;;;;5057172;28;20203;-82
2021/09/28 07:48:57;;;;;;;7.83;1.87;;;;;;;;;;5059774;28;20235;-82
2021/09/28 07:51:24;;;;;;;7.10;1.93;;;;;;;;;;5052848;28;20223;-83
2021/09/28 07:53:52;;;;;;;7.60;2.13;;;;;;;;;;5052709;28;20196;-83
2021/09/28 07:56:21;;;;;;;8.53;2.10;;;;;;;;;;5067329;28;20242;-82
2021/09/28 07:58:50;;;;;;;6.93;1.80;;;;;;;;;;5065436;28;21046;-82
2021/09/28 08:01:20;;;;;;;7.25;2.13;;;;;;;;;;5071166;28;20207;-83
2021/09/28 08:03:47;;;;;;;9.20;2.05;;;;;;;;;;5072166;28;20202;-81
2021/09/28 08:06:14;;;;;;;8.25;1.73;;;;;;;;;;5066004;28;20269;-81
2021/09/28 08:08:41;;;;;;;7.30;1.85;;;;;;;;;;5052506;28;20208;-80
2021/09/28 08:11:09;;;;;;;6.78;1.70;;;;;;;;;;5069629;28;20286;-80
2021/09/28 08:13:36;;;;;;;6.70;2.03;;;;;;;;;;5073123;28;20486;-82
2021/09/28 08:16:05;;;;;;;6.65;1.90;;;;;;;;;;5063940;28;20335;-81
2021/09/28 08:18:32;;;;;;;6.20;2.03;;;;;;;;;;5051872;28;20259;-82
2021/09/28 08:20:59;;;;;;;8.65;2.03;;;;;;;;;;5067061;28;20752;-81
2021/09/28 08:23:26;;;;;;;7.85;2.10;;;;;;;;;;5053808;28;20638;-82
2021/09/28 08:31:21;;;;;;;7.25;2.30;;;;;;;;;;5072419;28;20332;-82
2021/09/28 08:33:48;;;;;;;8.52;2.10;;;;;;;;;;5073866;28;20581;-82
2021/09/28 08:36:15;;;;;;;5.30;1.77;;;;;;;;;;5071246;28;20254;-82
2021/09/28 08:38:42;;;;;;;7.55;1.67;;;;;;;;;;5054637;28;20676;-81
2021/09/28 08:41:12;;;;;;;8.48;1.90;;;;;;;;;;5054709;28;20652;-82
2021/09/28 08:43:39;;;;;;;10.40;1.92;;;;;;;;;;5055506;28;20607;-82
2021/09/28 08:46:06;;;;;;;7.82;2.05;;;;;;;;;;5055679;28;20295;-83
2021/09/28 08:48:35;;;;;;;7.00;1.90;;;;;;;;;;5069227;28;20234;-82
2021/09/28 08:51:06;;;;;;;7.80;2.22;;;;;;;;;;5073115;28;20249;-82
2021/09/28 08:53:33;;;;;;;10.15;1.88;;;;;;;;;;5054842;28;20214;-83
2021/09/28 08:56:00;;;;;;;8.48;2.10;;;;;;;;;;5054753;28;20255;-82
2021/09/28 08:58:28;;;;;;;8.25;1.63;;;;;;;;;;5054324;28;20234;-83
2021/09/28 09:01:04;;;;;;;7.38;1.90;;;;;;;;;;5066555;28;20233;-83
2021/09/28 09:03:32;;;;;;;9.25;1.98;;;;;;;;;;5074104;28;20261;-84
2021/09/28 09:06:02;;;;;;;9.98;2.25;;;;;;;;;;5074261;28;20284;-82
2021/09/28 09:08:33;;;;;;;8.23;1.90;;;;;;;;;;5062021;28;20231;-83
2021/09/28 09:11:02;;;;;;;8.57;1.98;;;;;;;;;;5074773;28;20885;-84
2021/09/28 09:13:36;;;;;;;6.82;1.58;;;;;;;;;;5068191;28;20667;-84
2021/09/28 09:16:04;;;;;;;7.60;1.80;;;;;;;;;;5054523;28;20261;-83
2021/09/28 09:18:31;;;;;;;6.93;1.50;;;;;;;;;;5054561;28;20207;-84
2021/09/28 09:21:03;;;;;;;9.68;1.77;;;;;;;;;;5054387;28;20287;-83
2021/09/28 09:23:34;;;;;;;6.95;1.70;;;;;;;;;;5053972;28;20242;-85
2021/09/28 09:26:06;;;;;;;6.93;1.73;;;;;;;;;;5071401;28;20223;-84
2021/09/28 09:28:35;;;;;;;8.10;1.70;;;;;;;;;;5054163;28;20200;-84
2021/09/28 09:31:15;;;;;;;11.05;2.00;;;;;;;;;;5058423;28;20202;-84
2021/09/28 09:33:43;;;;;;;8.13;1.40;;;;;;;;;;5061392;28;20217;-83
2021/09/28 09:36:16;;;;;;;6.47;1.88;;;;;;;;;;5058842;28;20259;-83
2021/09/28 09:38:44;;;;;;;6.82;1.50;;;;;;;;;;5072730;28;20202;-83
2021/09/28 09:41:12;;;;;;;4.47;1.40;;;;;;;;;;5065718;28;20227;-84
2021/09/28 09:43:39;;;;;;;6.75;1.80;;;;;;;;;;5058408;28;20249;-84
2021/09/28 09:46:11;;;;;;;6.90;1.38;;;;;;;;;;5074156;28;20611;-83
2021/09/28 09:48:39;;;;;;;8.10;1.25;;;;;;;;;;5077524;28;20628;-84
2021/09/28 09:51:07;;;;;;;5.13;1.50;;;;;;;;;;5077728;28;20202;-83
2021/09/28 09:53:37;;;;;;;5.38;1.48;;;;;;;;;;5076663;28;20638;-84
2021/09/28 09:56:05;;;;;;;6.43;1.55;;;;;;;;;;5071002;28;20784;-84
2021/09/28 09:58:34;;;;;;;7.72;1.73;;;;;;;;;;5064034;28;20243;-83
2021/09/28 10:01:01;;;;;;;5.78;1.48;;;;;;;;;;5069792;28;20199;-83
2021/09/28 10:03:28;;;;;;;5.15;1.10;;;;;;;;;;5076578;28;20706;-84
2021/09/28 10:05:56;;;;;;;6.35;1.27;;;;;;;;;;5076744;28;20667;-84
2021/09/28 10:08:23;;;;;;;9.27;1.25;;;;;;;;;;5077443;28;20203;-84
2021/09/28 10:11:01;;;;;;;5.93;1.30;;;;;;;;;;5076743;28;20293;-84
2021/09/28 10:13:47;;;;;;;7.25;1.60;;;;;;;;;;5071288;28;20657;-84
2021/09/28 10:16:31;;;;;;;7.75;2.70;;;;;;;;;;5057310;28;20316;-84
2021/09/28 10:18:58;;;;;;;5.65;1.30;;;;;;;;;;5069273;28;20218;-84
2021/09/28 10:21:43;;;;;;;3.65;1.05;;;;;;;;;;5077856;28;20230;-85
2021/09/28 10:24:26;;;;;;;5.70;1.30;;;;;;;;;;5076110;28;20260;-84
2021/09/28 10:27:21;;;;;;;6.75;1.63;;;;;;;;;;5057676;28;20268;-84
2021/09/28 10:29:52;;;;;;;6.60;1.15;;;;;;;;;;5076187;28;20257;-84
2021/09/28 10:32:38;;;;;;;8.23;1.55;;;;;;;;;;5077765;28;20210;-85
2021/09/28 10:35:09;;;;;;;6.05;1.42;;;;;;;;;;5077287;28;20245;-82
2021/09/28 10:37:48;;;;;;;5.10;1.50;;;;;;;;;;5076917;28;20259;-83
2021/09/28 10:40:31;;;;;;;5.72;1.60;;;;;;;;;;5066409;28;20675;-83
2021/09/28 10:43:00;;;;;;;4.68;1.20;;;;;;;;;;5068209;28;20200;-83
2021/09/28 10:45:42;;;;;;;5.32;1.20;;;;;;;;;;5076029;28;20253;-84
2021/09/28 10:48:18;;;;;;;8.40;1.42;;;;;;;;;;5076682;28;20309;-83
2021/09/28 10:50:46;;;;;;;6.38;1.10;;;;;;;;;;5062304;28;20199;-83
2021/09/28 10:53:28;;;;;;;7.10;1.27;;;;;;;;;;5068406;28;20659;-83
2021/09/28 10:58:57;;;;;;;8.05;1.35;;;;;;;;;;5058638;28;20670;-83
2021/09/28 11:01:25;;;;;;;6.97;1.55;;;;;;;;;;5060428;28;20256;-83
2021/09/28 11:03:58;;;;;;;3.28;1.05;;;;;;;;;;5077367;28;20329;-83
2021/09/28 11:07:02;;;;;;;2.70;0.88;;;;;;;;;;5065965;28;20242;-83
2021/09/28 11:09:49;;;;;;;6.07;0.88;;;;;;;;;;5014531;28;20216;-83
2021/09/28 11:12:17;;;;;;;3.30;0.85;;;;;;;;;;5014185;28;20580;-84
2021/09/28 11:14:45;;;;;;;5.70;0.88;;;;;;;;;;5014217;28;20251;-84
2021/09/28 11:17:14;;;;;;;7.15;0.98;;;;;;;;;;5013493;28;20233;-83
2021/09/28 11:19:46;;;;;;;2.22;0.70;;;;;;;;;;5014179;28;20227;-84
2021/09/28 11:22:19;;;;;;;2.78;0.73;;;;;;;;;;5014470;28;20284;-83
2021/09/28 11:24:46;;;;;;;5.18;0.95;;;;;;;;;;5013141;28;20201;-83
2021/09/28 11:27:14;;;;;;;5.43;1.25;;;;;;;;;;5014084;28;20731;-84
2021/09/28 11:29:42;;;;;;;3.15;0.73;;;;;;;;;;5014618;28;20288;-84
2021/09/28 11:32:10;;;;;;;3.60;0.90;;;;;;;;;;5013860;28;20205;-84
2021/09/28 11:34:39;;;;;;;8.30;1.20;;;;;;;;;;5014600;28;20198;-84
2021/09/28 11:37:08;;;;;;;3.22;0.93;;;;;;;;;;5013901;28;20732;-84
2021/09/28 11:39:40;;;;;;;4.75;1.35;;;;;;;;;;5025654;28;20197;-84
2021/09/28 11:42:07;;;;;;;6.10;1.20;;;;;;;;;;5062269;28;20325;-84
2021/09/28 11:44:36;;;;;;;2.42;0.90;;;;;;;;;;5066969;28;20714;-84
2021/09/28 11:47:04;;;;;;;4.32;1.00;;;;;;;;;;5076635;28;20238;-85
2021/09/28 11:49:31;;;;;;;4.57;1.00;;;;;;;;;;5074936;28;20684;-84
2021/09/28 11:51:59;;;;;;;3.40;0.93;;;;;;;;;;5057360;28;20587;-84
2021/09/28 11:54:28;;;;;;;3.95;1.00;;;;;;;;;;5055988;28;20632;-83
2021/09/28 11:56:59;;;;;;;5.47;1.00;;;;;;;;;;5055965;28;20259;-84
2021/09/28 11:59:26;;;;;;;3.67;0.85;;;;;;;;;;5062509;28;20230;-83
2021/09/28 12:01:55;;;;;;;4.75;1.00;;;;;;;;;;5075722;28;20646;-84
2021/09/28 12:04:44;;;;;;;4.45;0.90;;;;;;;;;;5072684;28;20716;-83
2021/09/28 12:07:22;;;;;;;6.03;1.00;;;;;;;;;;5045785;28;20297;-82
2021/09/28 12:09:57;;;;;;;4.75;1.08;;;;;;;;;;5057586;28;20976;-83
2021/09/28 12:12:26;;;;;;;4.72;1.20;;;;;;;;;;5055627;28;20242;-83
2021/09/28 12:14:53;;;;;;;7.68;1.20;;;;;;;;;;5055349;28;20210;-83
2021/09/28 12:17:22;;;;;;;3.60;1.05;;;;;;;;;;5055325;28;20320;-83
2021/09/28 12:19:50;;;;;;;4.30;1.00;;;;;;;;;;5055215;28;20196;-83
2021/09/28 12:22:28;;;;;;;7.47;1.10;;;;;;;;;;5075111;28;20230;-83
2021/09/28 12:24:57;;;;;;;4.03;0.80;;;;;;;;;;5074811;28;20233;-83
2021/09/28 12:27:25;;;;;;;4.97;1.20;;;;;;;;;;5075193;28;20233;-82
2021/09/28 12:29:54;;;;;;;4.60;0.80;;;;;;;;;;5062270;28;20230;-83
2021/09/28 12:32:22;;;;;;;4.20;0.93;;;;;;;;;;5054038;28;20204;-82
2021/09/28 12:34:51;;;;;;;4.38;0.98;;;;;;;;;;5052158;28;20227;-83
2021/09/28 12:37:18;;;;;;;7.07;1.20;;;;;;;;;;5052405;28;20224;-83
2021/09/28 12:40:04;;;;;;;4.18;1.00;;;;;;;;;;5051749;28;20226;-83
2021/09/28 12:42:33;;;;;;;4.72;1.00;;;;;;;;;;5070200;28;20302;-82
2021/09/28 12:45:01;;;;;;;6.93;1.15;;;;;;;;;;5071200;28;20229;-83
2021/09/28 12:47:37;;;;;;;6.95;0.90;;;;;;;;;;5071507;28;20234;-83
2021/09/28 12:50:24;;;;;;;4.82;1.08;;;;;;;;;;5071848;28;20229;-83
2021/09/28 12:52:52;;;;;;;4.10;0.85;;;;;;;;;;5071444;28;20234;-82
2021/09/28 12:55:20;;;;;;;3.55;0.80;;;;;;;;;;5058821;28;20227;-83
2021/09/28 12:57:48;;;;;;;5.95;1.00;;;;;;;;;;5053967;28;20223;-83
2021/09/28 13:00:16;;;;;;;2.83;0.68;;;;;;;;;;5071569;28;20289;-81
2021/09/28 13:02:43;;;;;;;5.53;1.00;;;;;;;;;;5070730;28;20628;-83
2021/09/28 13:05:12;;;;;;;3.20;0.70;;;;;;;;;;5058265;28;20203;-82
2021/09/28 13:07:40;;;;;;;5.53;1.10;;;;;;;;;;5051479;28;20735;-83
2021/09/28 13:10:08;;;;;;;7.05;0.93;;;;;;;;;;5052281;28;20227;-82
2021/09/28 13:12:35;;;;;;;3.67;1.02;;;;;;;;;;5066940;28;20284;-82
2021/09/28 13:15:04;;;;;;;3.88;1.00;;;;;;;;;;5071071;28;20310;-83
2021/09/28 13:17:32;;;;;;;3.85;0.90;;;;;;;;;;5064134;28;20345;-82
2021/09/28 13:20:02;;;;;;;5.65;1.00;;;;;;;;;;5057670;28;20227;-81
2021/09/28 13:22:29;;;;;;;5.30;0.90;;;;;;;;;;5061113;28;20195;-83
2021/09/28 13:24:56;;;;;;;4.47;0.90;;;;;;;;;;5071597;28;20219;-83
2021/09/28 13:27:23;;;;;;;4.40;1.00;;;;;;;;;;5068019;28;20274;-84
2021/09/28 13:29:50;;;;;;;5.20;1.10;;;;;;;;;;5051599;28;20290;-82
2021/09/28 13:32:19;;;;;;;4.13;0.82;;;;;;;;;;5051002;28;20199;-82
2021/09/28 13:34:46;;;;;;;6.20;0.90;;;;;;;;;;5062217;28;20230;-84
2021/09/28 13:37:14;;;;;;;7.03;0.80;;;;;;;;;;5060319;28;20326;-83
2021/09/28 13:39:41;;;;;;;2.90;1.10;;;;;;;;;;5071433;28;20221;-82
2021/09/28 13:42:09;;;;;;;3.70;0.80;;;;;;;;;;5071109;28;20726;-83
2021/09/28 13:44:37;;;;;;;5.40;0.80;;;;;;;;;;5071007;28;20271;-83
2021/09/28 13:47:04;;;;;;;4.38;0.90;;;;;;;;;;5070960;28;20203;-83
2021/09/28 13:49:33;;;;;;;4.88;1.00;;;;;;;;;;5058398;28;20922;-83
2021/09/28 13:52:00;;;;;;;8.15;1.00;;;;;;;;;;5064754;28;20278;-84
2021/09/28 13:54:27;;;;;;;4.32;1.08;;;;;;;;;;5066995;28;20273;-84
2021/09/28 13:56:54;;;;;;;2.95;0.93;;;;;;;;;;5061646;28;20838;-82
2021/09/28 13:59:22;;;;;;;5.07;0.95;;;;;;;;;;5058514;28;20290;-84
2021/09/28 14:01:49;;;;;;;6.32;1.00;;;;;;;;;;5066186;28;20310;-83
2021/09/28 14:04:17;;;;;;;4.00;0.70;;;;;;;;;;5051903;28;20298;-82
2021/09/28 14:06:46;;;;;;;4.30;0.90;;;;;;;;;;5050541;28;20239;-83
2021/09/28 14:09:14;;;;;;;4.82;0.88;;;;;;;;;;5068592;28;20570;-83
2021/09/28 14:11:42;;;;;;;6.40;1.10;;;;;;;;;;5070729;28;20564;-83
2021/09/28 14:14:09;;;;;;;7.57;0.90;;;;;;;;;;5070877;28;20278;-82
2021/09/28 14:16:36;;;;;;;5.03;0.80;;;;;;;;;;5073034;28;20215;-83
2021/09/28 14:19:03;;;;;;;3.38;0.90;;;;;;;;;;5075142;28;20292;-83
2021/09/28 14:21:31;;;;;;;2.03;0.60;;;;;;;;;;5056485;28;20231;-82
2021/09/28 14:24:00;;;;;;;3.63;0.50;;;;;;;;;;5074560;28;20670;-83
2021/09/28 14:26:27;;;;;;;3.40;0.75;;;;;;;;;;5068150;28;20195;-83
2021/09/28 14:28:55;;;;;;;2.25;0.50;;;;;;;;;;5061772;28;20223;-83
2021/09/28 14:31:22;;;;;;;2.92;0.57;;;;;;;;;;5074733;28;20294;-83
2021/09/28 14:33:49;;;;;;;3.83;0.60;;;;;;;;;;5074279;28;20226;-83
2021/09/28 14:36:16;;;;;;;3.47;0.63;;;;;;;;;;5071181;28;20199;-83
2021/09/28 14:38:45;;;;;;;1.63;0.40;;;;;;;;;;5054185;28;20282;-82
2021/09/28 14:41:14;;;;;;;2.70;0.75;;;;;;;;;;5068220;28;20196;-83
2021/09/28 14:43:41;;;;;;;2.97;0.60;;;;;;;;;;5065825;28;20563;-83
2021/09/28 14:46:09;;;;;;;3.15;0.68;;;;;;;;;;5069395;28;20355;-83
2021/09/28 14:48:37;;;;;;;5.03;0.70;;;;;;;;;;5073014;28;20686;-84
2021/09/28 14:51:04;;;;;;;6.25;1.17;;;;;;;;;;5063229;28;20620;-84
2021/09/28 14:53:31;;;;;;;5.13;1.20;;;;;;;;;;5054758;28;20283;-84
2021/09/28 14:56:04;;;;;;;4.22;1.10;;;;;;;;;;5055048;28;20306;-84
2021/09/28 14:58:33;;;;;;;8.02;1.23;;;;;;;;;;5060777;28;20223;-84